sensor_id;sensor_type;location;lat;lon;timestamp;pressure;altitude;pressure_sealevel;temperature;humidity
30598;BME280;17365;48.878;8.334;2023-05-12T00:01:49;99791.84;;;13.21;100.00
30598;BME280;17365;48.878;8.334;2023-05-12T00:04:14;99782.53;;;13.00;100.00
30598;BME280;17365;48.878;8.334;2023-05-12T00:06:39;99787.56;;;13.16;100.00
30598;BME280;17365;48.878;8.334;2023-05-12T00:09:05;99781.66;;;13.01;100.00
30598;BME280;17365;48.878;8.334;2023-05-12T00:11:30;99778.84;;;13.20;100.00
30598;BME280;17365;48.878;8.334;2023-05-12T00:13:55;99785.56;;;12.70;100.00
30598;BME280;17365;48.878;8.334;2023-05-12T00:16:20;99787.00;;;12.91;100.00
30598;BME280;17365;48.878;8.334;2023-05-12T00:18:45;99784.13;;;13.12;100.00
30598;BME280;17365;48.878;8.334;2023-05-12T00:21:11;99784.94;;;13.19;100.00
30598;BME280;17365;48.878;8.334;2023-05-12T00:23:36;99784.22;;;13.06;100.00
30598;BME280;17365;48.878;8.334;2023-05-12T00:26:01;99785.84;;;13.15;100.00
30598;BME280;17365;48.878;8.334;2023-05-12T00:28:26;99777.31;;;13.00;100.00
30598;BME280;17365;48.878;8.334;2023-05-12T00:30:52;99784.03;;;13.21;100.00
30598;BME280;17365;48.878;8.334;2023-05-12T00:33:17;99783.63;;;12.84;100.00
30598;BME280;17365;48.878;8.334;2023-05-12T00:35:42;99771.09;;;13.12;100.00
30598;BME280;17365;48.878;8.334;2023-05-12T00:38:09;99776.31;;;13.12;100.00
30598;BME280;17365;48.878;8.334;2023-05-12T00:40:35;99772.78;;;13.16;100.00
30598;BME280;17365;48.878;8.334;2023-05-12T00:43:00;99770.81;;;13.33;100.00
30598;BME280;17365;48.878;8.334;2023-05-12T00:45:25;99771.00;;;13.21;100.00
30598;BME280;17365;48.878;8.334;2023-05-12T00:47:53;99769.22;;;13.23;100.00
30598;BME280;17365;48.878;8.334;2023-05-12T00:50:18;99766.75;;;13.11;100.00
30598;BME280;17365;48.878;8.334;2023-05-12T00:52:45;99754.88;;;12.93;100.00
30598;BME280;17365;48.878;8.334;2023-05-12T00:55:10;99763.44;;;13.03;100.00
30598;BME280;17365;48.878;8.334;2023-05-12T00:57:35;99764.69;;;12.73;100.00
30598;BME280;17365;48.878;8.334;2023-05-12T01:00:01;99765.47;;;12.78;100.00
30598;BME280;17365;48.878;8.334;2023-05-12T01:02:26;99761.59;;;13.09;100.00
30598;BME280;17365;48.878;8.334;2023-05-12T01:04:51;99763.22;;;13.17;100.00
30598;BME280;17365;48.878;8.334;2023-05-12T01:07:23;99760.72;;;13.09;100.00
30598;BME280;17365;48.878;8.334;2023-05-12T01:09:52;99760.09;;;12.90;100.00
30598;BME280;17365;48.878;8.334;2023-05-12T01:12:18;99771.53;;;12.81;100.00
30598;BME280;17365;48.878;8.334;2023-05-12T01:14:45;99768.19;;;12.70;100.00
30598;BME280;17365;48.878;8.334;2023-05-12T01:17:11;99761.78;;;12.96;100.00
30598;BME280;17365;48.878;8.334;2023-05-12T01:22:05;99759.75;;;13.16;100.00
30598;BME280;17365;48.878;8.334;2023-05-12T01:24:31;99766.69;;;13.17;100.00
30598;BME280;17365;48.878;8.334;2023-05-12T01:26:58;99759.56;;;13.31;100.00
30598;BME280;17365;48.878;8.334;2023-05-12T01:29:24;99769.09;;;13.32;100.00
30598;BME280;17365;48.878;8.334;2023-05-12T01:31:49;99763.88;;;13.32;100.00
30598;BME280;17365;48.878;8.334;2023-05-12T01:34:15;99764.69;;;13.37;100.00
30598;BME280;17365;48.878;8.334;2023-05-12T01:36:42;99763.75;;;13.42;100.00
30598;BME280;17365;48.878;8.334;2023-05-12T01:39:07;99754.03;;;12.90;100.00
30598;BME280;17365;48.878;8.334;2023-05-12T01:41:32;99763.69;;;12.83;100.00
30598;BME280;17365;48.878;8.334;2023-05-12T01:43:58;99764.66;;;12.74;100.00
30598;BME280;17365;48.878;8.334;2023-05-12T01:46:23;99760.13;;;12.89;100.00
30598;BME280;17365;48.878;8.334;2023-05-12T01:48:48;99765.97;;;13.07;100.00
30598;BME280;17365;48.878;8.334;2023-05-12T01:51:14;99769.31;;;13.19;100.00
30598;BME280;17365;48.878;8.334;2023-05-12T01:53:39;99764.75;;;12.67;100.00
30598;BME280;17365;48.878;8.334;2023-05-12T01:56:04;99768.63;;;13.04;100.00
30598;BME280;17365;48.878;8.334;2023-05-12T01:58:30;99764.06;;;13.20;100.00
30598;BME280;17365;48.878;8.334;2023-05-12T02:00:55;99764.03;;;13.22;100.00
30598;BME280;17365;48.878;8.334;2023-05-12T02:03:20;99768.81;;;12.89;100.00
30598;BME280;17365;48.878;8.334;2023-05-12T02:05:45;99770.34;;;13.04;100.00
30598;BME280;17365;48.878;8.334;2023-05-12T02:08:10;99767.19;;;12.80;100.00
30598;BME280;17365;48.878;8.334;2023-05-12T02:10:36;99761.84;;;12.91;100.00
30598;BME280;17365;48.878;8.334;2023-05-12T02:13:01;99769.72;;;12.85;100.00
30598;BME280;17365;48.878;8.334;2023-05-12T02:15:26;99763.63;;;12.86;100.00
30598;BME280;17365;48.878;8.334;2023-05-12T02:17:52;99766.06;;;13.00;100.00
30598;BME280;17365;48.878;8.334;2023-05-12T02:20:18;99763.47;;;12.29;100.00
30598;BME280;17365;48.878;8.334;2023-05-12T02:22:43;99761.53;;;12.46;100.00
30598;BME280;17365;48.878;8.334;2023-05-12T02:25:08;99768.41;;;12.52;100.00
30598;BME280;17365;48.878;8.334;2023-05-12T02:27:34;99768.06;;;12.78;100.00
30598;BME280;17365;48.878;8.334;2023-05-12T02:29:59;99767.53;;;12.51;100.00
30598;BME280;17365;48.878;8.334;2023-05-12T02:32:24;99766.16;;;12.20;100.00
30598;BME280;17365;48.878;8.334;2023-05-12T02:34:52;99762.41;;;12.45;100.00
30598;BME280;17365;48.878;8.334;2023-05-12T02:37:17;99764.63;;;12.76;100.00
30598;BME280;17365;48.878;8.334;2023-05-12T02:39:42;99763.00;;;12.69;100.00
30598;BME280;17365;48.878;8.334;2023-05-12T02:42:07;99760.25;;;12.79;100.00
30598;BME280;17365;48.878;8.334;2023-05-12T02:44:32;99762.75;;;12.87;100.00
30598;BME280;17365;48.878;8.334;2023-05-12T02:46:57;99762.41;;;12.44;100.00
30598;BME280;17365;48.878;8.334;2023-05-12T02:49:23;99764.25;;;12.37;100.00
30598;BME280;17365;48.878;8.334;2023-05-12T02:51:48;99762.25;;;12.59;100.00
30598;BME280;17365;48.878;8.334;2023-05-12T02:54:13;99763.84;;;12.71;100.00
30598;BME280;17365;48.878;8.334;2023-05-12T02:56:38;99764.44;;;12.90;100.00
30598;BME280;17365;48.878;8.334;2023-05-12T02:59:03;99760.06;;;12.95;100.00
30598;BME280;17365;48.878;8.334;2023-05-12T03:01:29;99759.84;;;13.10;100.00
30598;BME280;17365;48.878;8.334;2023-05-12T03:03:54;99760.69;;;13.12;100.00
30598;BME280;17365;48.878;8.334;2023-05-12T03:06:19;99761.50;;;13.16;100.00
30598;BME280;17365;48.878;8.334;2023-05-12T03:08:45;99766.91;;;12.30;100.00
30598;BME280;17365;48.878;8.334;2023-05-12T03:11:10;99762.97;;;12.72;100.00
30598;BME280;17365;48.878;8.334;2023-05-12T03:13:35;99764.00;;;12.56;100.00
30598;BME280;17365;48.878;8.334;2023-05-12T03:16:01;99769.16;;;12.62;100.00
30598;BME280;17365;48.878;8.334;2023-05-12T03:18:26;99761.94;;;12.83;100.00
30598;BME280;17365;48.878;8.334;2023-05-12T03:20:52;99763.41;;;12.32;100.00
30598;BME280;17365;48.878;8.334;2023-05-12T03:23:17;99764.69;;;12.73;100.00
30598;BME280;17365;48.878;8.334;2023-05-12T03:25:43;99763.75;;;12.77;100.00
30598;BME280;17365;48.878;8.334;2023-05-12T03:28:08;99765.88;;;12.47;100.00
30598;BME280;17365;48.878;8.334;2023-05-12T03:30:33;99769.81;;;12.77;100.00
30598;BME280;17365;48.878;8.334;2023-05-12T03:32:58;99769.06;;;12.69;100.00
30598;BME280;17365;48.878;8.334;2023-05-12T03:35:23;99764.56;;;12.83;100.00
30598;BME280;17365;48.878;8.334;2023-05-12T03:37:49;99765.59;;;12.70;100.00
30598;BME280;17365;48.878;8.334;2023-05-12T03:40:14;99757.94;;;12.55;100.00
30598;BME280;17365;48.878;8.334;2023-05-12T03:42:42;99764.69;;;12.73;100.00
30598;BME280;17365;48.878;8.334;2023-05-12T03:45:07;99763.19;;;12.52;100.00
30598;BME280;17365;48.878;8.334;2023-05-12T03:47:33;99770.34;;;12.32;100.00
30598;BME280;17365;48.878;8.334;2023-05-12T03:49:59;99766.88;;;12.33;100.00
30598;BME280;17365;48.878;8.334;2023-05-12T03:52:25;99766.59;;;12.60;100.00
30598;BME280;17365;48.878;8.334;2023-05-12T03:54:50;99763.25;;;12.47;100.00
30598;BME280;17365;48.878;8.334;2023-05-12T03:57:15;99764.03;;;12.54;100.00
30598;BME280;17365;48.878;8.334;2023-05-12T03:59:42;99758.94;;;12.45;100.00
30598;BME280;17365;48.878;8.334;2023-05-12T04:02:07;99762.25;;;12.59;100.00
30598;BME280;17365;48.878;8.334;2023-05-12T04:04:35;99763.13;;;12.60;100.00
30598;BME280;17365;48.878;8.334;2023-05-12T04:07:00;99751.94;;;12.51;100.00
30598;BME280;17365;48.878;8.334;2023-05-12T04:09:26;99753.84;;;12.37;100.00
30598;BME280;17365;48.878;8.334;2023-05-12T04:11:51;99749.00;;;12.77;100.00
30598;BME280;17365;48.878;8.334;2023-05-12T04:14:16;99758.72;;;12.63;100.00
30598;BME280;17365;48.878;8.334;2023-05-12T04:16:42;99756.06;;;12.66;100.00
30598;BME280;17365;48.878;8.334;2023-05-12T04:19:07;99756.81;;;12.76;100.00
30598;BME280;17365;48.878;8.334;2023-05-12T04:21:32;99757.53;;;12.89;100.00
30598;BME280;17365;48.878;8.334;2023-05-12T04:23:57;99756.72;;;12.85;100.00
30598;BME280;17365;48.878;8.334;2023-05-12T04:26:23;99763.47;;;12.98;100.00
30598;BME280;17365;48.878;8.334;2023-05-12T04:28:48;99757.53;;;12.89;100.00
30598;BME280;17365;48.878;8.334;2023-05-12T04:31:13;99760.94;;;12.94;100.00
30598;BME280;17365;48.878;8.334;2023-05-12T04:33:38;99763.53;;;12.95;100.00
30598;BME280;17365;48.878;8.334;2023-05-12T04:36:04;99762.66;;;12.95;100.00
30598;BME280;17365;48.878;8.334;2023-05-12T04:38:29;99767.19;;;12.80;100.00
30598;BME280;17365;48.878;8.334;2023-05-12T04:40:58;99765.44;;;12.79;100.00
30598;BME280;17365;48.878;8.334;2023-05-12T04:43:24;99760.00;;;12.99;100.00
30598;BME280;17365;48.878;8.334;2023-05-12T04:45:49;99767.72;;;13.07;100.00
30598;BME280;17365;48.878;8.334;2023-05-12T04:48:15;99764.56;;;12.83;100.00
30598;BME280;17365;48.878;8.334;2023-05-12T04:50:40;99768.63;;;13.03;100.00
30598;BME280;17365;48.878;8.334;2023-05-12T04:53:05;99784.13;;;13.12;100.00
30598;BME280;17365;48.878;8.334;2023-05-12T04:55:30;99780.47;;;12.59;100.00
30598;BME280;17365;48.878;8.334;2023-05-12T04:57:56;99775.34;;;12.51;100.00
30598;BME280;17365;48.878;8.334;2023-05-12T05:00:21;99780.34;;;12.67;100.00
30598;BME280;17365;48.878;8.334;2023-05-12T05:02:46;99784.00;;;12.52;100.00
30598;BME280;17365;48.878;8.334;2023-05-12T05:05:11;99787.25;;;12.72;100.00
30598;BME280;17365;48.878;8.334;2023-05-12T05:07:36;99779.25;;;12.86;100.00
30598;BME280;17365;48.878;8.334;2023-05-12T05:10:02;99786.75;;;13.10;100.00
30598;BME280;17365;48.878;8.334;2023-05-12T05:12:27;99786.69;;;13.15;100.00
30598;BME280;17365;48.878;8.334;2023-05-12T05:14:52;99785.88;;;13.10;100.00
30598;BME280;17365;48.878;8.334;2023-05-12T05:17:18;99786.91;;;12.98;100.00
30598;BME280;17365;48.878;8.334;2023-05-12T05:19:43;99787.66;;;13.08;100.00
30598;BME280;17365;48.878;8.334;2023-05-12T05:22:08;99790.94;;;13.22;100.00
30598;BME280;17365;48.878;8.334;2023-05-12T05:24:33;99787.84;;;12.94;100.00
30598;BME280;17365;48.878;8.334;2023-05-12T05:26:59;99786.66;;;13.17;100.00
30598;BME280;17365;48.878;8.334;2023-05-12T05:29:24;99789.53;;;12.97;100.00
30598;BME280;17365;48.878;8.334;2023-05-12T05:31:50;99793.59;;;13.19;100.00
30598;BME280;17365;48.878;8.334;2023-05-12T05:34:16;99791.91;;;13.15;100.00
30598;BME280;17365;48.878;8.334;2023-05-12T05:36:41;99793.22;;;12.82;100.00
30598;BME280;17365;48.878;8.334;2023-05-12T05:39:06;99795.41;;;13.14;100.00
30598;BME280;17365;48.878;8.334;2023-05-12T05:41:34;99797.88;;;13.23;100.00
30598;BME280;17365;48.878;8.334;2023-05-12T05:43:59;99797.53;;;13.49;100.00
30598;BME280;17365;48.878;8.334;2023-05-12T05:46:25;99796.47;;;12.98;100.00
30598;BME280;17365;48.878;8.334;2023-05-12T05:48:50;99795.25;;;13.25;99.58
30598;BME280;17365;48.878;8.334;2023-05-12T05:51:15;99800.22;;;13.42;99.17
30598;BME280;17365;48.878;8.334;2023-05-12T05:53:41;99806.53;;;13.27;99.70
30598;BME280;17365;48.878;8.334;2023-05-12T05:56:06;99802.75;;;13.46;98.37
30598;BME280;17365;48.878;8.334;2023-05-12T05:58:31;99813.31;;;13.38;98.31
30598;BME280;17365;48.878;8.334;2023-05-12T06:00:56;99811.31;;;12.90;100.00
30598;BME280;17365;48.878;8.334;2023-05-12T06:03:24;99808.44;;;13.11;99.48
30598;BME280;17365;48.878;8.334;2023-05-12T06:05:49;99812.63;;;13.24;100.00
30598;BME280;17365;48.878;8.334;2023-05-12T06:08:14;99814.03;;;13.47;98.97
30598;BME280;17365;48.878;8.334;2023-05-12T06:10:39;99817.84;;;13.24;99.48
30598;BME280;17365;48.878;8.334;2023-05-12T06:13:05;99817.56;;;13.44;99.38
30598;BME280;17365;48.878;8.334;2023-05-12T06:15:30;99818.06;;;13.67;97.84
30598;BME280;17365;48.878;8.334;2023-05-12T06:17:55;99826.22;;;13.46;98.44
30598;BME280;17365;48.878;8.334;2023-05-12T06:20:20;99822.31;;;13.11;100.00
30598;BME280;17365;48.878;8.334;2023-05-12T06:22:47;99818.53;;;13.35;99.92
30598;BME280;17365;48.878;8.334;2023-05-12T06:25:12;99833.00;;;13.56;98.81
30598;BME280;17365;48.878;8.334;2023-05-12T06:27:37;99829.22;;;13.17;100.00
30598;BME280;17365;48.878;8.334;2023-05-12T06:30:03;99824.63;;;13.36;100.00
30598;BME280;17365;48.878;8.334;2023-05-12T06:32:28;99829.13;;;13.26;99.30
30598;BME280;17365;48.878;8.334;2023-05-12T06:34:53;99826.75;;;13.68;98.42
30598;BME280;17365;48.878;8.334;2023-05-12T06:37:18;99826.38;;;13.91;96.59
30598;BME280;17365;48.878;8.334;2023-05-12T06:39:44;99830.09;;;13.78;95.51
30598;BME280;17365;48.878;8.334;2023-05-12T06:42:09;99833.69;;;13.69;96.54
30598;BME280;17365;48.878;8.334;2023-05-12T06:44:35;99841.72;;;14.11;94.86
30598;BME280;17365;48.878;8.334;2023-05-12T06:47:00;99835.13;;;13.30;95.51
30598;BME280;17365;48.878;8.334;2023-05-12T06:49:25;99836.00;;;13.87;94.20
30598;BME280;17365;48.878;8.334;2023-05-12T06:51:51;99835.38;;;14.27;92.56
30598;BME280;17365;48.878;8.334;2023-05-12T06:54:16;99838.97;;;14.18;92.68
30598;BME280;17365;48.878;8.334;2023-05-12T06:56:41;99839.59;;;14.33;90.74
30598;BME280;17365;48.878;8.334;2023-05-12T06:59:06;99838.53;;;14.43;90.99
30598;BME280;17365;48.878;8.334;2023-05-12T07:01:32;99839.78;;;14.22;89.57
30598;BME280;17365;48.878;8.334;2023-05-12T07:03:57;99838.06;;;14.21;90.56
30598;BME280;17365;48.878;8.334;2023-05-12T07:06:22;99842.09;;;14.37;89.73
30598;BME280;17365;48.878;8.334;2023-05-12T07:08:48;99837.66;;;14.90;88.40
30598;BME280;17365;48.878;8.334;2023-05-12T07:11:13;99841.72;;;15.03;86.58
30598;BME280;17365;48.878;8.334;2023-05-12T07:13:44;99845.56;;;14.39;88.11
30598;BME280;17365;48.878;8.334;2023-05-12T07:16:09;99842.28;;;14.28;90.77
30598;BME280;17365;48.878;8.334;2023-05-12T07:18:34;99838.91;;;14.72;88.88
30598;BME280;17365;48.878;8.334;2023-05-12T07:20:59;99839.50;;;14.39;90.79
30598;BME280;17365;48.878;8.334;2023-05-12T07:23:25;99836.91;;;14.83;88.41
30598;BME280;17365;48.878;8.334;2023-05-12T07:25:50;99838.66;;;14.84;86.80
30598;BME280;17365;48.878;8.334;2023-05-12T07:28:15;99833.84;;;15.05;86.63
30598;BME280;17365;48.878;8.334;2023-05-12T07:30:40;99840.31;;;14.89;84.70
30598;BME280;17365;48.878;8.334;2023-05-12T07:33:05;99837.66;;;14.45;86.57
30598;BME280;17365;48.878;8.334;2023-05-12T07:35:32;99841.81;;;14.03;88.26
30598;BME280;17365;48.878;8.334;2023-05-12T07:37:57;99832.97;;;14.13;89.26
30598;BME280;17365;48.878;8.334;2023-05-12T07:40:22;99838.81;;;14.26;90.26
30598;BME280;17365;48.878;8.334;2023-05-12T07:42:48;99839.56;;;14.34;88.15
30598;BME280;17365;48.878;8.334;2023-05-12T07:45:13;99831.22;;;14.65;87.33
30598;BME280;17365;48.878;8.334;2023-05-12T07:47:38;99833.63;;;15.15;84.77
30598;BME280;17365;48.878;8.334;2023-05-12T07:50:04;99829.84;;;15.30;84.54
30598;BME280;17365;48.878;8.334;2023-05-12T07:52:29;99831.03;;;15.15;82.99
30598;BME280;17365;48.878;8.334;2023-05-12T07:54:55;99830.72;;;15.31;82.38
30598;BME280;17365;48.878;8.334;2023-05-12T07:57:20;99828.72;;;15.02;84.37
30598;BME280;17365;48.878;8.334;2023-05-12T07:59:46;99830.28;;;15.10;82.91
30598;BME280;17365;48.878;8.334;2023-05-12T08:02:11;99835.34;;;15.17;83.64
30598;BME280;17365;48.878;8.334;2023-05-12T08:04:36;99835.34;;;15.17;83.81
30598;BME280;17365;48.878;8.334;2023-05-12T08:07:01;99835.22;;;14.81;85.10
30598;BME280;17365;48.878;8.334;2023-05-12T08:09:27;99825.59;;;14.83;84.60
30598;BME280;17365;48.878;8.334;2023-05-12T08:11:52;99826.09;;;15.42;83.47
30598;BME280;17365;48.878;8.334;2023-05-12T08:14:17;99830.38;;;15.83;81.19
30598;BME280;17365;48.878;8.334;2023-05-12T08:16:42;99830.38;;;15.04;83.29
30598;BME280;17365;48.878;8.334;2023-05-12T08:19:09;99836.69;;;14.96;83.66
30598;BME280;17365;48.878;8.334;2023-05-12T08:21:35;99828.81;;;15.37;84.12
30598;BME280;17365;48.878;8.334;2023-05-12T08:24:00;99831.84;;;14.76;84.58
30598;BME280;17365;48.878;8.334;2023-05-12T08:26:25;99836.31;;;15.12;83.93
30598;BME280;17365;48.878;8.334;2023-05-12T08:28:50;99830.09;;;15.20;83.37
30598;BME280;17365;48.878;8.334;2023-05-12T08:31:17;99832.44;;;15.70;81.00
30598;BME280;17365;48.878;8.334;2023-05-12T08:33:43;99826.50;;;15.99;79.16
30598;BME280;17365;48.878;8.334;2023-05-12T08:36:08;99831.94;;;15.53;80.73
30598;BME280;17365;48.878;8.334;2023-05-12T08:38:33;99838.47;;;15.72;80.95
30598;BME280;17365;48.878;8.334;2023-05-12T08:43:34;99839.72;;;15.93;79.62
30598;BME280;17365;48.878;8.334;2023-05-12T08:46:01;99843.00;;;15.66;80.31
30598;BME280;17365;48.878;8.334;2023-05-12T08:48:27;99840.19;;;15.73;78.85
30598;BME280;17365;48.878;8.334;2023-05-12T08:50:53;99837.16;;;15.14;80.33
30598;BME280;17365;48.878;8.334;2023-05-12T08:53:19;99850.50;;;15.01;82.26
30598;BME280;17365;48.878;8.334;2023-05-12T08:55:46;99838.66;;;15.25;81.84
30598;BME280;17365;48.878;8.334;2023-05-12T08:58:11;99841.72;;;15.45;80.05
30598;BME280;17365;48.878;8.334;2023-05-12T09:00:37;99845.03;;;15.53;80.18
30598;BME280;17365;48.878;8.334;2023-05-12T09:03:03;99854.47;;;15.20;79.98
30598;BME280;17365;48.878;8.334;2023-05-12T09:05:29;99846.75;;;15.54;80.44
30598;BME280;17365;48.878;8.334;2023-05-12T09:07:55;99845.19;;;15.84;78.99
30598;BME280;17365;48.878;8.334;2023-05-12T09:10:21;99840.97;;;16.14;76.92
30598;BME280;17365;48.878;8.334;2023-05-12T09:12:48;99841.56;;;15.90;77.33
30598;BME280;17365;48.878;8.334;2023-05-12T09:15:20;99840.88;;;16.17;75.13
30598;BME280;17365;48.878;8.334;2023-05-12T09:17:47;99841.63;;;15.88;76.13
30598;BME280;17365;48.878;8.334;2023-05-12T09:20:12;99843.84;;;16.38;75.64
30598;BME280;17365;48.878;8.334;2023-05-12T09:22:37;99833.28;;;16.41;74.92
30598;BME280;17365;48.878;8.334;2023-05-12T09:25:16;99838.94;;;15.90;77.54
30598;BME280;17365;48.878;8.334;2023-05-12T09:27:42;99844.28;;;16.21;76.64
30598;BME280;17365;48.878;8.334;2023-05-12T09:30:08;99841.88;;;16.13;76.14
30598;BME280;17365;48.878;8.334;2023-05-12T09:32:33;99840.19;;;15.35;80.86
30598;BME280;17365;48.878;8.334;2023-05-12T09:35:06;99842.22;;;15.22;82.22
30598;BME280;17365;48.878;8.334;2023-05-12T09:37:33;99837.03;;;15.96;79.11
30598;BME280;17365;48.878;8.334;2023-05-12T09:40:01;99839.78;;;15.92;78.35
30598;BME280;17365;48.878;8.334;2023-05-12T09:42:28;99837.19;;;15.90;77.57
30598;BME280;17365;48.878;8.334;2023-05-12T09:44:57;99835.03;;;16.06;77.73
30598;BME280;17365;48.878;8.334;2023-05-12T09:47:25;99838.03;;;16.92;75.89
30598;BME280;17365;48.878;8.334;2023-05-12T09:49:51;99838.13;;;16.23;78.13
30598;BME280;17365;48.878;8.334;2023-05-12T09:52:19;99836.03;;;16.70;74.77
30598;BME280;17365;48.878;8.334;2023-05-12T09:54:44;99841.91;;;17.08;73.54
30598;BME280;17365;48.878;8.334;2023-05-12T09:57:11;99851.19;;;16.90;72.17
30598;BME280;17365;48.878;8.334;2023-05-12T09:59:39;99835.97;;;16.72;73.35
30598;BME280;17365;48.878;8.334;2023-05-12T10:02:08;99836.72;;;16.75;72.45
30598;BME280;17365;48.878;8.334;2023-05-12T10:04:36;99839.63;;;16.65;72.93
30598;BME280;17365;48.878;8.334;2023-05-12T10:07:07;99836.06;;;16.69;73.23
30598;BME280;17365;48.878;8.334;2023-05-12T10:09:34;99836.19;;;16.30;74.28
30598;BME280;17365;48.878;8.334;2023-05-12T10:12:03;99834.81;;;16.82;73.67
30598;BME280;17365;48.878;8.334;2023-05-12T10:14:28;99831.69;;;16.99;70.57
30598;BME280;17365;48.878;8.334;2023-05-12T10:16:53;99829.69;;;17.08;71.33
30598;BME280;17365;48.878;8.334;2023-05-12T10:19:19;99840.19;;;15.73;75.58
30598;BME280;17365;48.878;8.334;2023-05-12T10:21:45;99836.44;;;16.53;73.18
30598;BME280;17365;48.878;8.334;2023-05-12T10:24:11;99834.16;;;16.74;72.40
30598;BME280;17365;48.878;8.334;2023-05-12T10:26:38;99842.13;;;16.02;74.91
30598;BME280;17365;48.878;8.334;2023-05-12T10:29:03;99836.38;;;15.88;76.92
30598;BME280;17365;48.878;8.334;2023-05-12T10:31:30;99836.06;;;16.35;77.08
30598;BME280;17365;48.878;8.334;2023-05-12T10:33:59;99840.06;;;16.15;75.70
30598;BME280;17365;48.878;8.334;2023-05-12T10:36:24;99840.13;;;16.46;74.25
30598;BME280;17365;48.878;8.334;2023-05-12T10:38:50;99838.69;;;16.69;74.42
30598;BME280;17365;48.878;8.334;2023-05-12T10:41:16;99840.78;;;16.22;76.23
30598;BME280;17365;48.878;8.334;2023-05-12T10:43:42;99839.84;;;15.52;81.94
30598;BME280;17365;48.878;8.334;2023-05-12T10:48:34;99839.25;;;15.78;80.92
30598;BME280;17365;48.878;8.334;2023-05-12T10:51:07;99840.53;;;15.60;79.29
30598;BME280;17365;48.878;8.334;2023-05-12T10:53:32;99843.66;;;15.76;78.13
30598;BME280;17365;48.878;8.334;2023-05-12T10:55:58;99838.78;;;15.59;78.79
30598;BME280;17365;48.878;8.334;2023-05-12T10:58:26;99840.28;;;16.06;75.35
30598;BME280;17365;48.878;8.334;2023-05-12T11:00:52;99846.91;;;16.19;75.44
30598;BME280;17365;48.878;8.334;2023-05-12T11:03:22;99840.16;;;15.77;77.14
30598;BME280;17365;48.878;8.334;2023-05-12T11:05:57;99836.22;;;15.94;76.97
30598;BME280;17365;48.878;8.334;2023-05-12T11:08:22;99844.47;;;15.78;77.29
30598;BME280;17365;48.878;8.334;2023-05-12T11:10:48;99855.44;;;15.14;79.39
30598;BME280;17365;48.878;8.334;2023-05-12T11:13:14;99851.28;;;15.04;80.29
30598;BME280;17365;48.878;8.334;2023-05-12T11:15:42;99851.00;;;15.58;78.22
30598;BME280;17365;48.878;8.334;2023-05-12T11:18:08;99848.22;;;15.67;77.75
30598;BME280;17365;48.878;8.334;2023-05-12T11:20:33;99839.28;;;15.76;76.45
30598;BME280;17365;48.878;8.334;2023-05-12T11:22:58;99843.53;;;16.16;74.38
30598;BME280;17365;48.878;8.334;2023-05-12T11:25:25;99846.53;;;16.00;74.90
30598;BME280;17365;48.878;8.334;2023-05-12T11:27:50;99853.66;;;16.29;72.95
30598;BME280;17365;48.878;8.334;2023-05-12T11:30:15;99843.44;;;16.53;73.13
30598;BME280;17365;48.878;8.334;2023-05-12T11:32:41;99850.50;;;16.83;71.17
30598;BME280;17365;48.878;8.334;2023-05-12T11:35:12;99846.91;;;16.86;70.99
30598;BME280;17365;48.878;8.334;2023-05-12T11:37:38;99838.50;;;17.06;71.32
30598;BME280;17365;48.878;8.334;2023-05-12T11:40:17;99845.91;;;16.92;70.44
30598;BME280;17365;48.878;8.334;2023-05-12T11:42:42;99846.66;;;16.63;71.87
30598;BME280;17365;48.878;8.334;2023-05-12T11:45:22;99854.03;;;16.48;71.32
30598;BME280;17365;48.878;8.334;2023-05-12T11:47:47;99847.72;;;16.90;70.97
30598;BME280;17365;48.878;8.334;2023-05-12T11:50:18;99850.28;;;17.21;69.34
30598;BME280;17365;48.878;8.334;2023-05-12T11:52:43;99852.97;;;16.23;72.82
30598;BME280;17365;48.878;8.334;2023-05-12T11:55:09;99853.66;;;16.95;70.72
30598;BME280;17365;48.878;8.334;2023-05-12T11:57:34;99852.16;;;16.86;70.98
30598;BME280;17365;48.878;8.334;2023-05-12T12:00:03;99852.34;;;17.09;69.09
30598;BME280;17365;48.878;8.334;2023-05-12T12:02:29;99848.09;;;17.36;70.04
30598;BME280;17365;48.878;8.334;2023-05-12T12:04:55;99853.00;;;17.17;68.85
30598;BME280;17365;48.878;8.334;2023-05-12T12:07:35;99848.56;;;17.20;70.35
30598;BME280;17365;48.878;8.334;2023-05-12T12:10:14;99847.47;;;17.56;68.57
30598;BME280;17365;48.878;8.334;2023-05-12T12:12:40;99852.91;;;17.50;67.62
30598;BME280;17365;48.878;8.334;2023-05-12T12:15:05;99852.16;;;17.46;66.14
30598;BME280;17365;48.878;8.334;2023-05-12T12:17:31;99848.13;;;17.35;68.01
30598;BME280;17365;48.878;8.334;2023-05-12T12:19:56;99854.84;;;17.43;67.00
30598;BME280;17365;48.878;8.334;2023-05-12T12:22:22;99855.34;;;17.27;66.98
30598;BME280;17365;48.878;8.334;2023-05-12T12:24:47;99849.59;;;17.43;65.71
30598;BME280;17365;48.878;8.334;2023-05-12T12:27:12;99848.22;;;17.88;66.99
30598;BME280;17365;48.878;8.334;2023-05-12T12:29:37;99857.13;;;18.61;64.05
30598;BME280;17365;48.878;8.334;2023-05-12T12:32:03;99848.97;;;18.44;63.11
30598;BME280;17365;48.878;8.334;2023-05-12T12:34:28;99849.91;;;17.62;65.13
30598;BME280;17365;48.878;8.334;2023-05-12T12:36:54;99847.34;;;18.15;63.52
30598;BME280;17365;48.878;8.334;2023-05-12T12:39:20;99842.59;;;18.26;63.15
30598;BME280;17365;48.878;8.334;2023-05-12T12:41:46;99847.97;;;18.22;61.47
30598;BME280;17365;48.878;8.334;2023-05-12T12:44:12;99850.16;;;17.83;62.81
30598;BME280;17365;48.878;8.334;2023-05-12T12:46:37;99850.59;;;18.48;62.50
30598;BME280;17365;48.878;8.334;2023-05-12T12:49:02;99849.88;;;17.05;67.50
30598;BME280;17365;48.878;8.334;2023-05-12T12:51:27;99843.63;;;17.66;66.54
30598;BME280;17365;48.878;8.334;2023-05-12T12:53:54;99850.16;;;18.09;63.99
30598;BME280;17365;48.878;8.334;2023-05-12T12:56:20;99847.91;;;17.13;67.25